Bookmark and Share
Track history (hours):
 

ExpreSS Skopelitis

Last reported at 2014-Apr-16 04:33 UTC. Time now 2014-Apr-16 05:30 UTC.
Position N 36°59' E 025°54'.

Length 45 m; draft 2.4 m.

Type: Passenger vessel. MMSI: 237029400.

NotesDate/timePositionNaut miles runAvg speedWind from/ knotsBaromVisibWave heightAir tempDewpointWater temp
2014-Apr-16 04:33N 36°59' E 025°54'7 6.7
2014-Apr-16 03:32N 36°52' E 025°53'5 0.4
2014-Apr-15 14:33N 36°52' E 025°47'11 5.3
2014-Apr-15 12:34N 36°55' E 025°34'6 5.6
2014-Apr-15 11:34N 36°53' E 025°28'1212.0
2014-Apr-15 10:33N 37°04' E 025°20'3 3.2
2014-Apr-15 09:33N 37°06' E 025°22'0 0.0
2014-Apr-15 08:33N 37°06' E 025°22'0 0.0
2014-Apr-15 07:34N 37°06' E 025°22'2 1.9
2014-Apr-15 06:33N 37°05' E 025°20'1211.8
2014-Apr-15 05:33N 36°55' E 025°26'16 7.8
2014-Apr-15 03:34N 36°52' E 025°45'10 0.8
2014-Apr-14 15:33N 36°54' E 025°58'9 9.6
2014-Apr-14 14:34N 37°02' E 025°51'6 5.6
2014-Apr-14 13:33N 37°02' E 025°44'15 7.7
2014-Apr-14 11:33N 36°53' E 025°28'1212.0
2014-Apr-14 10:33N 37°03' E 025°20'4 3.8
2014-Apr-14 09:34N 37°06' E 025°22'0 0.0
2014-Apr-14 08:32N 37°06' E 025°22'4 4.0
2014-Apr-14 07:33N 37°03' E 025°21'1212.2
2014-Apr-14 06:33N 36°52' E 025°29'7 7.1
2014-Apr-14 05:33N 36°56' E 025°36'14 0.4
2014-Apr-12 17:03N 36°50' E 025°52'3 6.4
2014-Apr-12 16:33N 36°52' E 025°54'7 6.7
2014-Apr-12 15:34N 36°59' E 025°53'8 7.6
2014-Apr-12 14:34N 37°04' E 025°46'1211.7
2014-Apr-12 13:33N 36°56' E 025°36'7 7.5
2014-Apr-12 12:33N 36°52' E 025°28'1111.3
2014-Apr-12 11:33N 37°02' E 025°21'5 4.9
2014-Apr-12 10:34N 37°06' E 025°22'0 0.0
2014-Apr-12 09:33N 37°06' E 025°22'4 4.2
2014-Apr-12 08:34N 37°02' E 025°21'1211.6
2014-Apr-12 07:31N 36°52' E 025°28'7 7.7
2014-Apr-12 06:33N 36°56' E 025°36'1211.6
2014-Apr-12 05:33N 37°04' E 025°46'8 8.3
2014-Apr-12 04:32N 36°59' E 025°54'6 6.3
2014-Apr-12 03:33N 36°52' E 025°54'5 0.4
2014-Apr-11 14:33N 36°51' E 025°48'1110.8
2014-Apr-11 13:33N 36°56' E 025°36'7 7.2
2014-Apr-11 12:33N 36°52' E 025°28'1212.0
2014-Apr-11 11:34N 37°02' E 025°21'4 4.0
2014-Apr-11 10:28N 37°06' E 025°22'0 0.0
2014-Apr-11 09:33N 37°06' E 025°22'0 0.0
2014-Apr-11 08:34N 37°06' E 025°22'3 2.5
2014-Apr-11 07:33N 37°05' E 025°20'1212.0
2014-Apr-11 06:33N 36°54' E 025°27'6 6.1
2014-Apr-11 05:33N 36°55' E 025°34'10 9.7
2014-Apr-11 04:34N 36°52' E 025°46'1 0.1
2014-Apr-10 14:34N 36°51' E 025°46'1010.3
2014-Apr-10 13:33N 36°55' E 025°34'5 5.5
2014-Apr-10 12:33N 36°54' E 025°27'1211.5
2014-Apr-10 11:33N 37°03' E 025°20'3 3.4
2014-Apr-10 10:33N 37°06' E 025°22'0 0.0
2014-Apr-10 09:33N 37°06' E 025°22'0 0.0
2014-Apr-10 08:33N 37°06' E 025°22'3 2.7
2014-Apr-10 07:33N 37°05' E 025°20'1211.8
2014-Apr-10 06:33N 36°54' E 025°27'6 5.9
2014-Apr-10 05:33N 36°55' E 025°34'10 9.8
2014-Apr-10 04:33N 36°52' E 025°46'5 0.5
2014-Apr-09 17:05N 36°50' E 025°51'5 9.0
2014-Apr-09 16:33N 36°53' E 025°56'8 7.9
2014-Apr-09 15:33N 37°00' E 025°52'6 6.4
2014-Apr-09 14:33N 37°04' E 025°46'1111.2
2014-Apr-09 13:33N 36°56' E 025°36'7 7.4
2014-Apr-09 12:33N 36°52' E 025°28'1111.0
2014-Apr-09 11:33N 37°01' E 025°21'5 5.2
2014-Apr-09 10:33N 37°06' E 025°22'0 0.0
2014-Apr-09 09:33N 37°06' E 025°22'3 3.4
2014-Apr-09 08:33N 37°03' E 025°20'1212.2
2014-Apr-09 07:33N 36°53' E 025°28'7 7.0
2014-Apr-09 06:33N 36°56' E 025°36'1110.6
2014-Apr-09 05:33N 37°03' E 025°45'8 7.7
2014-Apr-09 04:33N 36°59' E 025°53'7 7.1
2014-Apr-09 03:33N 36°52' E 025°54'5 0.4
2014-Apr-08 14:33N 36°51' E 025°47'1110.6
2014-Apr-08 13:33N 36°56' E 025°35'6 6.4
2014-Apr-08 12:33N 36°53' E 025°28'1212.3
2014-Apr-08 11:33N 37°03' E 025°20'3 3.5
2014-Apr-08 10:33N 37°06' E 025°22'0 0.0
2014-Apr-08 09:33N 37°06' E 025°22'0 0.0
2014-Apr-08 08:33N 37°06' E 025°22'3 3.4
2014-Apr-08 07:33N 37°03' E 025°20'1211.8
2014-Apr-08 06:33N 36°53' E 025°28'6 6.3
2014-Apr-08 05:33N 36°55' E 025°35'10 9.6
2014-Apr-08 04:33N 36°52' E 025°46'6 0.5
2014-Apr-07 16:33N 36°53' E 025°54'7 6.9
2014-Apr-07 15:33N 36°59' E 025°52'7 6.7
2014-Apr-07 14:33N 37°04' E 025°46'1111.3
2014-Apr-07 13:33N 36°56' E 025°36'7 7.4
2014-Apr-07 12:33N 36°52' E 025°28'1111.0
2014-Apr-07 11:33N 37°01' E 025°21'5 5.2
2014-Apr-07 10:33N 37°06' E 025°22'0 0.0
2014-Apr-07 09:33N 37°06' E 025°22'4 3.9
2014-Apr-07 08:33N 37°03' E 025°21'1212.0
2014-Apr-07 07:33N 36°52' E 025°28'7 7.0
2014-Apr-07 06:33N 36°56' E 025°36'1110.8
2014-Apr-07 05:33N 37°04' E 025°45'8 7.8
2014-Apr-07 04:33N 36°59' E 025°53'7 6.9
2014-Apr-07 03:33N 36°52' E 025°54'3 0.2
2014-Apr-06 10:26N 36°50' E 025°52'0 0.0
2014-Apr-06 07:14N 36°50' E 025°52'0 0.0
2014-Apr-06 06:30N 36°50' E 025°52'  

Dump ship's entire track history

sailing weather and tide predictions

ExpreSS Skopelitis — SW3130 — position and weather